Time;durP1;ratioP1;P1;durP2;ratioP2;P2;SDS_P1;SDS_P2;PMS_P1;PMS_P2;Temp;Humidity;BMP_temperature;BMP_pressure;BME280_temperature;BME280_humidity;BME280_pressure;Samples;Min_cycle;Max_cycle;Signal;HPM_P1;HPM_P2
2023/09/10 00:00:03;;;;;;;1.27;1.27;;;;;;;;;;5055922;28;20198;-82
2023/09/10 00:02:31;;;;;;;0.40;0.40;;;;;;;;;;5056013;28;20199;-82
2023/09/10 00:05:01;;;;;;;2.83;2.73;;;;;;;;;;5056054;28;20204;-82
2023/09/10 00:07:30;;;;;;;0.40;0.40;;;;;;;;;;5055948;28;20225;-82
2023/09/10 00:09:58;;;;;;;2.83;2.73;;;;;;;;;;5055146;28;20228;-82
2023/09/10 00:12:26;;;;;;;2.30;2.10;;;;;;;;;;5055620;28;20260;-82
2023/09/10 00:14:55;;;;;;;0.50;0.50;;;;;;;;;;5055609;28;20236;-82
2023/09/10 00:17:23;;;;;;;0.50;0.50;;;;;;;;;;5055856;28;20265;-82
2023/09/10 00:19:52;;;;;;;0.50;0.50;;;;;;;;;;5055112;28;20250;-82
2023/09/10 00:22:22;;;;;;;0.80;0.80;;;;;;;;;;5055278;28;20190;-82
2023/09/10 00:24:50;;;;;;;0.90;0.90;;;;;;;;;;5055804;28;20195;-82
2023/09/10 00:27:18;;;;;;;3.67;3.33;;;;;;;;;;5055246;28;20295;-82
2023/09/10 00:29:47;;;;;;;5.17;2.83;;;;;;;;;;5055141;28;20225;-82
2023/09/10 00:32:15;;;;;;;1.90;1.80;;;;;;;;;;5055264;28;20201;-82
2023/09/10 00:34:44;;;;;;;0.20;0.20;;;;;;;;;;5055301;28;20267;-82
2023/09/10 00:37:16;;;;;;;0.37;0.37;;;;;;;;;;5055170;28;20237;-82
2023/09/10 00:39:46;;;;;;;0.67;0.67;;;;;;;;;;5055496;28;20200;-82
2023/09/10 00:42:14;;;;;;;3.23;3.03;;;;;;;;;;5055698;28;20202;-82
2023/09/10 00:44:43;;;;;;;1.90;1.90;;;;;;;;;;5054927;28;20297;-82
2023/09/10 00:47:11;;;;;;;0.93;0.93;;;;;;;;;;5055126;28;20209;-82
2023/09/10 00:49:40;;;;;;;2.00;1.90;;;;;;;;;;5054950;28;20222;-82
2023/09/10 00:52:09;;;;;;;0.77;0.77;;;;;;;;;;5054735;28;20206;-82
2023/09/10 00:54:38;;;;;;;1.70;1.70;;;;;;;;;;5055007;28;20459;-82
2023/09/10 00:57:08;;;;;;;0.73;0.73;;;;;;;;;;5054641;28;20247;-82
2023/09/10 00:59:36;;;;;;;3.20;3.00;;;;;;;;;;5055123;28;20196;-82
2023/09/10 01:02:05;;;;;;;0.30;0.30;;;;;;;;;;5054845;28;20213;-82
2023/09/10 01:04:34;;;;;;;1.10;1.10;;;;;;;;;;5054882;28;20227;-82
2023/09/10 01:07:03;;;;;;;0.20;0.20;;;;;;;;;;5054708;28;20201;-82
2023/09/10 01:09:31;;;;;;;0.93;0.80;;;;;;;;;;5054678;28;20218;-82
2023/09/10 01:12:03;;;;;;;1.33;1.30;;;;;;;;;;5054587;28;20205;-82
2023/09/10 01:14:36;;;;;;;1.03;1.03;;;;;;;;;;5054737;28;20213;-82
2023/09/10 01:17:06;;;;;;;1.90;1.80;;;;;;;;;;5054791;28;20190;-82
2023/09/10 01:19:42;;;;;;;0.40;0.40;;;;;;;;;;5053783;28;20233;-83
2023/09/10 01:22:12;;;;;;;0.57;0.57;;;;;;;;;;5053498;28;20223;-83
2023/09/10 01:24:47;;;;;;;2.33;2.23;;;;;;;;;;5054456;28;20227;-83
2023/09/10 01:27:16;;;;;;;1.20;1.20;;;;;;;;;;5054364;28;20208;-83
2023/09/10 01:29:44;;;;;;;3.53;3.33;;;;;;;;;;5053807;28;20229;-83
2023/09/10 01:32:16;;;;;;;1.00;1.00;;;;;;;;;;5053789;28;20233;-83
2023/09/10 01:34:47;;;;;;;0.87;0.87;;;;;;;;;;5053861;28;20206;-82
2023/09/10 01:37:18;;;;;;;0.50;0.50;;;;;;;;;;5053874;28;20215;-82
2023/09/10 01:39:50;;;;;;;0.73;0.73;;;;;;;;;;5053875;28;20195;-83
2023/09/10 01:42:18;;;;;;;0.77;0.77;;;;;;;;;;5053472;28;20198;-83
2023/09/10 01:44:47;;;;;;;0.60;0.60;;;;;;;;;;5053942;28;20202;-83
2023/09/10 01:47:16;;;;;;;1.43;1.40;;;;;;;;;;5054294;28;20261;-82
2023/09/10 01:49:44;;;;;;;0.83;0.83;;;;;;;;;;5053586;28;20268;-82
2023/09/10 01:52:13;;;;;;;0.80;0.80;;;;;;;;;;5053753;28;20311;-82
2023/09/10 01:54:41;;;;;;;1.70;1.63;;;;;;;;;;5053913;28;20201;-82
2023/09/10 01:57:11;;;;;;;2.53;2.43;;;;;;;;;;5053517;28;20209;-82
2023/09/10 01:59:39;;;;;;;1.33;1.33;;;;;;;;;;5053738;28;20212;-82
2023/09/10 02:02:08;;;;;;;1.60;1.50;;;;;;;;;;5053737;28;20201;-82
2023/09/10 02:04:36;;;;;;;3.30;1.17;;;;;;;;;;5054320;28;20202;-82
2023/09/10 02:07:05;;;;;;;7.07;6.00;;;;;;;;;;5053403;28;20212;-82
2023/09/10 02:09:33;;;;;;;0.67;0.67;;;;;;;;;;5053720;28;20316;-82
2023/09/10 02:12:02;;;;;;;6.13;5.63;;;;;;;;;;5053721;28;20201;-82
2023/09/10 02:14:32;;;;;;;2.20;2.10;;;;;;;;;;5053546;28;20198;-82
2023/09/10 02:17:00;;;;;;;1.03;1.03;;;;;;;;;;5052533;28;20205;-82
2023/09/10 02:19:28;;;;;;;5.80;2.80;;;;;;;;;;5053530;28;20236;-81
2023/09/10 02:21:57;;;;;;;7.53;4.73;;;;;;;;;;5053513;28;20245;-82
2023/09/10 02:24:25;;;;;;;1.43;1.33;;;;;;;;;;5053130;28;20206;-82
2023/09/10 02:26:54;;;;;;;2.63;2.47;;;;;;;;;;5053202;28;20206;-82
2023/09/10 02:29:22;;;;;;;5.77;5.20;;;;;;;;;;5053681;28;20227;-82
2023/09/10 02:31:52;;;;;;;2.63;2.43;;;;;;;;;;5053345;28;20267;-82
2023/09/10 02:34:21;;;;;;;4.33;3.80;;;;;;;;;;5053185;28;20206;-82
2023/09/10 02:36:49;;;;;;;1.97;1.90;;;;;;;;;;5053194;28;20222;-82
2023/09/10 02:39:17;;;;;;;3.50;2.77;;;;;;;;;;5053473;28;20204;-82
2023/09/10 02:41:46;;;;;;;1.93;1.83;;;;;;;;;;5053032;28;20197;-82
2023/09/10 02:44:15;;;;;;;2.93;2.63;;;;;;;;;;5052442;28;20255;-81
2023/09/10 02:46:43;;;;;;;4.17;3.83;;;;;;;;;;5052772;28;20206;-82
2023/09/10 02:49:13;;;;;;;2.37;2.27;;;;;;;;;;5053376;28;20225;-81
2023/09/10 02:51:41;;;;;;;1.17;1.17;;;;;;;;;;5052591;28;20205;-82
2023/09/10 02:54:10;;;;;;;5.43;4.90;;;;;;;;;;5052247;28;20202;-83
2023/09/10 02:56:38;;;;;;;1.50;1.40;;;;;;;;;;5052546;28;20206;-83
2023/09/10 02:59:06;;;;;;;9.03;3.50;;;;;;;;;;5052203;28;20224;-83
2023/09/10 03:01:36;;;;;;;5.70;5.23;;;;;;;;;;5051953;28;20206;-83
2023/09/10 03:04:04;;;;;;;2.70;2.50;;;;;;;;;;5051787;28;20209;-83
2023/09/10 03:06:34;;;;;;;4.43;4.03;;;;;;;;;;5052651;28;20208;-83
2023/09/10 03:09:03;;;;;;;10.30;9.33;;;;;;;;;;5051960;28;20256;-83
2023/09/10 03:11:33;;;;;;;2.87;2.63;;;;;;;;;;5052056;28;20200;-83
2023/09/10 03:14:02;;;;;;;4.83;4.33;;;;;;;;;;5052007;28;20211;-83
2023/09/10 03:16:31;;;;;;;3.67;3.33;;;;;;;;;;5052420;28;20248;-83
2023/09/10 03:18:59;;;;;;;4.27;3.70;;;;;;;;;;5051635;28;20230;-83
2023/09/10 03:21:28;;;;;;;7.03;5.60;;;;;;;;;;5052136;28;20201;-83
2023/09/10 03:23:58;;;;;;;1.97;1.87;;;;;;;;;;5051914;28;20251;-83
2023/09/10 03:26:26;;;;;;;9.57;8.73;;;;;;;;;;5051932;28;20209;-83
2023/09/10 03:28:55;;;;;;;8.67;7.87;;;;;;;;;;5050821;28;20213;-83
2023/09/10 03:31:23;;;;;;;4.40;4.10;;;;;;;;;;5052170;28;20221;-82
2023/09/10 03:33:52;;;;;;;3.70;3.40;;;;;;;;;;5052255;28;20234;-83
2023/09/10 03:36:20;;;;;;;3.10;2.97;;;;;;;;;;5051908;28;20272;-82
2023/09/10 03:38:48;;;;;;;7.00;6.33;;;;;;;;;;5051756;28;20205;-82
2023/09/10 03:41:18;;;;;;;7.10;6.60;;;;;;;;;;5052291;28;20206;-82
2023/09/10 03:43:47;;;;;;;3.50;3.20;;;;;;;;;;5051993;28;20207;-81
2023/09/10 03:46:15;;;;;;;9.20;8.47;;;;;;;;;;5051882;28;20210;-82
2023/09/10 03:48:44;;;;;;;12.03;7.90;;;;;;;;;;5051726;28;20259;-82
2023/09/10 03:51:12;;;;;;;2.57;2.43;;;;;;;;;;5051875;28;20224;-82
2023/09/10 03:53:41;;;;;;;1.03;1.03;;;;;;;;;;5051780;28;20204;-82
2023/09/10 03:56:09;;;;;;;1.93;1.83;;;;;;;;;;5051386;28;20201;-82
2023/09/10 03:58:39;;;;;;;5.47;4.93;;;;;;;;;;5052080;28;20209;-82
2023/09/10 04:01:08;;;;;;;14.90;7.40;;;;;;;;;;5052329;28;20204;-82
2023/09/10 04:03:37;;;;;;;4.17;3.80;;;;;;;;;;5051869;28;20232;-82
2023/09/10 04:06:05;;;;;;;4.80;4.33;;;;;;;;;;5051666;28;20212;-82
2023/09/10 04:08:34;;;;;;;3.43;3.17;;;;;;;;;;5051912;28;20204;-82
2023/09/10 04:11:02;;;;;;;3.67;3.47;;;;;;;;;;5051819;28;20227;-82
2023/09/10 04:13:31;;;;;;;6.53;6.13;;;;;;;;;;5051102;28;20255;-82
2023/09/10 04:16:00;;;;;;;2.00;1.90;;;;;;;;;;5051836;28;20207;-82
2023/09/10 04:18:29;;;;;;;2.43;2.33;;;;;;;;;;5051584;28;20202;-83
2023/09/10 04:20:57;;;;;;;1.77;1.67;;;;;;;;;;5051446;28;20232;-82
2023/09/10 04:23:26;;;;;;;4.23;1.80;;;;;;;;;;5050659;28;20206;-83
2023/09/10 04:25:54;;;;;;;3.87;3.57;;;;;;;;;;5051496;28;20252;-83
2023/09/10 04:28:22;;;;;;;6.47;6.00;;;;;;;;;;5051746;28;20234;-82
2023/09/10 04:30:51;;;;;;;5.10;4.90;;;;;;;;;;5051276;28;20216;-81
2023/09/10 04:33:21;;;;;;;5.47;5.07;;;;;;;;;;5050846;28;20193;-82
2023/09/10 04:35:50;;;;;;;4.13;3.77;;;;;;;;;;5051416;28;20232;-82
2023/09/10 04:38:19;;;;;;;6.60;6.03;;;;;;;;;;5051204;28;20201;-83
2023/09/10 04:40:47;;;;;;;8.60;6.53;;;;;;;;;;5052127;28;20272;-83
2023/09/10 04:43:15;;;;;;;11.77;9.23;;;;;;;;;;5054835;28;20196;-83
2023/09/10 04:45:44;;;;;;;5.43;5.00;;;;;;;;;;5055069;28;20204;-82
2023/09/10 04:48:13;;;;;;;4.93;4.63;;;;;;;;;;5055339;28;20211;-82
2023/09/10 04:50:43;;;;;;;6.77;5.43;;;;;;;;;;5054473;28;20262;-82
2023/09/10 04:53:12;;;;;;;3.50;3.20;;;;;;;;;;5054703;28;20213;-82
2023/09/10 04:55:40;;;;;;;3.83;3.53;;;;;;;;;;5054639;28;20294;-83
2023/09/10 04:58:09;;;;;;;4.67;4.27;;;;;;;;;;5054780;28;20205;-83
2023/09/10 05:00:40;;;;;;;6.30;5.70;;;;;;;;;;5054695;28;20199;-82
2023/09/10 05:03:08;;;;;;;3.87;3.50;;;;;;;;;;5054649;28;20210;-82
2023/09/10 05:05:37;;;;;;;2.87;2.73;;;;;;;;;;5054793;28;20226;-82
2023/09/10 05:08:07;;;;;;;4.83;4.50;;;;;;;;;;5054777;28;20212;-82
2023/09/10 05:10:35;;;;;;;2.17;2.07;;;;;;;;;;5054648;28;20273;-82
2023/09/10 05:13:04;;;;;;;0.30;0.30;;;;;;;;;;5054604;28;20207;-82
2023/09/10 05:15:32;;;;;;;3.13;2.83;;;;;;;;;;5054301;28;20209;-83
2023/09/10 05:18:01;;;;;;;1.83;1.73;;;;;;;;;;5053768;28;20291;-83
2023/09/10 05:20:29;;;;;;;8.37;7.77;;;;;;;;;;5053975;28;20234;-83
2023/09/10 05:22:58;;;;;;;0.47;0.47;;;;;;;;;;5054272;28;20275;-83
2023/09/10 05:25:28;;;;;;;0.73;0.73;;;;;;;;;;5054100;28;20301;-82
2023/09/10 05:27:56;;;;;;;0.40;0.40;;;;;;;;;;5054365;28;20214;-82
2023/09/10 05:30:25;;;;;;;0.40;0.40;;;;;;;;;;5054544;28;20208;-82
2023/09/10 05:32:53;;;;;;;0.80;0.80;;;;;;;;;;5054338;28;20204;-82
2023/09/10 05:35:22;;;;;;;1.10;1.10;;;;;;;;;;5053868;28;20301;-82
2023/09/10 05:37:50;;;;;;;10.70;7.80;;;;;;;;;;5054331;28;20250;-82
2023/09/10 05:40:19;;;;;;;3.10;2.90;;;;;;;;;;5054251;28;20214;-82
2023/09/10 05:42:49;;;;;;;15.53;7.73;;;;;;;;;;5054042;28;20204;-81
2023/09/10 05:45:17;;;;;;;6.13;5.57;;;;;;;;;;5053930;28;20197;-82
2023/09/10 05:47:46;;;;;;;4.07;2.07;;;;;;;;;;5054128;28;20208;-82
2023/09/10 05:50:14;;;;;;;3.73;2.53;;;;;;;;;;5054057;28;20206;-82
2023/09/10 05:52:42;;;;;;;2.27;2.17;;;;;;;;;;5052680;28;20232;-82
2023/09/10 05:55:11;;;;;;;6.33;4.90;;;;;;;;;;5053597;28;20295;-82
2023/09/10 05:57:41;;;;;;;2.60;2.47;;;;;;;;;;5054342;28;20233;-82
2023/09/10 06:00:12;;;;;;;2.53;2.33;;;;;;;;;;5053123;28;20247;-82
2023/09/10 06:02:41;;;;;;;2.00;1.90;;;;;;;;;;5053253;28;20302;-82
2023/09/10 06:05:10;;;;;;;7.37;5.27;;;;;;;;;;5053917;28;20293;-82
2023/09/10 06:07:39;;;;;;;2.13;1.70;;;;;;;;;;5054164;28;20217;-82
2023/09/10 06:10:09;;;;;;;6.87;5.97;;;;;;;;;;5053260;28;20213;-82
2023/09/10 06:12:37;;;;;;;12.90;10.17;;;;;;;;;;5053220;28;20220;-82
2023/09/10 06:15:07;;;;;;;10.10;9.23;;;;;;;;;;5053189;28;20223;-82
2023/09/10 06:17:36;;;;;;;11.13;7.87;;;;;;;;;;5053319;28;20206;-82
2023/09/10 06:20:05;;;;;;;8.80;6.17;;;;;;;;;;5052462;28;20238;-82
2023/09/10 06:22:34;;;;;;;5.27;4.87;;;;;;;;;;5052693;28;20198;-82
2023/09/10 06:25:02;;;;;;;5.87;5.30;;;;;;;;;;5053189;28;20198;-82
2023/09/10 06:27:31;;;;;;;3.60;2.33;;;;;;;;;;5053227;28;20193;-82
2023/09/10 06:29:59;;;;;;;6.83;6.27;;;;;;;;;;5053078;28;20228;-82
2023/09/10 06:32:28;;;;;;;5.77;4.80;;;;;;;;;;5052705;28;20225;-82
2023/09/10 06:34:58;;;;;;;6.17;4.87;;;;;;;;;;5053227;28;20299;-83
2023/09/10 06:37:26;;;;;;;4.43;4.00;;;;;;;;;;5052420;28;20263;-82
2023/09/10 06:39:54;;;;;;;3.70;3.43;;;;;;;;;;5052816;28;20197;-82
2023/09/10 06:42:23;;;;;;;5.37;4.97;;;;;;;;;;5053044;28;20207;-82
2023/09/10 06:44:51;;;;;;;10.03;8.20;;;;;;;;;;5052691;28;20199;-83
2023/09/10 06:47:20;;;;;;;13.83;9.80;;;;;;;;;;5052676;28;20214;-82
2023/09/10 06:49:48;;;;;;;6.50;5.80;;;;;;;;;;5052480;28;20202;-82
2023/09/10 06:52:18;;;;;;;8.60;3.70;;;;;;;;;;5052850;28;20214;-82
2023/09/10 06:54:46;;;;;;;9.63;8.67;;;;;;;;;;5052575;28;20199;-82
2023/09/10 06:57:15;;;;;;;7.80;6.80;;;;;;;;;;5052998;28;20275;-82
2023/09/10 06:59:43;;;;;;;7.20;6.50;;;;;;;;;;5052394;28;20305;-82
2023/09/10 07:02:12;;;;;;;8.10;7.23;;;;;;;;;;5052889;28;20201;-82
2023/09/10 07:04:47;;;;;;;7.07;6.13;;;;;;;;;;5052108;28;20298;-82
2023/09/10 07:07:17;;;;;;;11.60;10.40;;;;;;;;;;5052209;28;20228;-82
2023/09/10 07:09:45;;;;;;;17.03;9.00;;;;;;;;;;5052263;28;20205;-83
2023/09/10 07:12:14;;;;;;;5.90;5.27;;;;;;;;;;5051955;28;20214;-83
2023/09/10 07:14:44;;;;;;;11.10;8.83;;;;;;;;;;5051356;28;20206;-83
2023/09/10 07:17:12;;;;;;;7.67;6.13;;;;;;;;;;5051835;28;20294;-83
2023/09/10 07:19:41;;;;;;;5.87;5.37;;;;;;;;;;5052210;28;20242;-83
2023/09/10 07:22:10;;;;;;;4.10;3.23;;;;;;;;;;5051970;28;20207;-83
2023/09/10 07:24:39;;;;;;;16.57;10.13;;;;;;;;;;5051307;28;20205;-83
2023/09/10 07:27:08;;;;;;;12.10;9.17;;;;;;;;;;5051972;28;20206;-83
2023/09/10 07:29:36;;;;;;;5.90;5.40;;;;;;;;;;5052127;28;20199;-83
2023/09/10 07:32:05;;;;;;;6.63;5.20;;;;;;;;;;5051451;28;20418;-83
2023/09/10 07:34:33;;;;;;;18.17;12.90;;;;;;;;;;5051265;28;20252;-83
2023/09/10 07:37:02;;;;;;;8.77;7.33;;;;;;;;;;5051917;28;20308;-83
2023/09/10 07:39:31;;;;;;;2.90;2.70;;;;;;;;;;5051986;28;20212;-82
2023/09/10 07:42:00;;;;;;;14.60;12.90;;;;;;;;;;5051312;28;20288;-82
2023/09/10 07:44:29;;;;;;;13.70;7.80;;;;;;;;;;5051993;28;20197;-82
2023/09/10 07:46:57;;;;;;;10.50;9.17;;;;;;;;;;5051734;28;20201;-82
2023/09/10 07:49:26;;;;;;;15.20;13.50;;;;;;;;;;5051470;28;20201;-82
2023/09/10 07:51:54;;;;;;;17.73;15.80;;;;;;;;;;5051222;28;20236;-82
2023/09/10 07:54:23;;;;;;;11.07;10.00;;;;;;;;;;5051740;28;20267;-83
2023/09/10 07:56:51;;;;;;;9.10;7.70;;;;;;;;;;5051808;28;20280;-82
2023/09/10 07:59:21;;;;;;;14.83;11.87;;;;;;;;;;5051648;28;20198;-82
2023/09/10 08:01:49;;;;;;;11.77;8.00;;;;;;;;;;5051681;28;20203;-82
2023/09/10 08:04:18;;;;;;;13.13;10.73;;;;;;;;;;5051418;28;20202;-82
2023/09/10 08:06:47;;;;;;;13.20;10.33;;;;;;;;;;5051639;28;20199;-82
2023/09/10 08:09:15;;;;;;;7.47;6.00;;;;;;;;;;5051390;28;20202;-82
2023/09/10 08:11:43;;;;;;;10.17;6.63;;;;;;;;;;5051371;28;20209;-83
2023/09/10 08:14:12;;;;;;;10.63;9.47;;;;;;;;;;5051264;28;20219;-83
2023/09/10 08:16:44;;;;;;;8.53;5.77;;;;;;;;;;5053793;28;20205;-83
2023/09/10 08:19:13;;;;;;;1.67;1.57;;;;;;;;;;5055015;28;20206;-83
2023/09/10 08:21:44;;;;;;;10.80;9.70;;;;;;;;;;5015732;28;20195;-84
2023/09/10 08:24:12;;;;;;;4.47;3.47;;;;;;;;;;5015468;28;20207;-83
2023/09/10 08:26:41;;;;;;;5.03;4.23;;;;;;;;;;5014892;28;20204;-83
2023/09/10 08:29:09;;;;;;;13.27;10.77;;;;;;;;;;5015177;28;20202;-83
2023/09/10 08:31:38;;;;;;;12.83;10.23;;;;;;;;;;5015807;28;20262;-83
2023/09/10 08:34:07;;;;;;;14.67;13.17;;;;;;;;;;5015028;28;20385;-83
2023/09/10 08:36:36;;;;;;;15.47;9.33;;;;;;;;;;5015121;28;20270;-82
2023/09/10 08:39:04;;;;;;;13.87;11.90;;;;;;;;;;5015779;28;20201;-82
2023/09/10 08:41:35;;;;;;;6.43;4.03;;;;;;;;;;5015673;28;20216;-82
2023/09/10 08:44:04;;;;;;;8.67;6.67;;;;;;;;;;5014847;28;20217;-82
2023/09/10 08:46:34;;;;;;;10.23;7.27;;;;;;;;;;5014892;28;20236;-83
2023/09/10 08:49:03;;;;;;;16.97;15.13;;;;;;;;;;5015162;28;20300;-84
2023/09/10 08:51:34;;;;;;;15.17;11.43;;;;;;;;;;5015127;28;20205;-84
2023/09/10 08:54:03;;;;;;;12.50;10.63;;;;;;;;;;5014369;28;20217;-84
2023/09/10 08:56:32;;;;;;;8.43;6.70;;;;;;;;;;5015157;28;20215;-84
2023/09/10 08:59:03;;;;;;;19.87;16.60;;;;;;;;;;5015012;28;20208;-83
2023/09/10 09:01:31;;;;;;;16.77;11.77;;;;;;;;;;5014723;28;20202;-83
2023/09/10 09:04:02;;;;;;;17.00;11.13;;;;;;;;;;5014620;28;20225;-83
2023/09/10 09:06:33;;;;;;;19.17;15.90;;;;;;;;;;5015395;28;20209;-84
2023/09/10 09:09:05;;;;;;;16.07;9.73;;;;;;;;;;5014699;28;20502;-84
2023/09/10 09:11:36;;;;;;;12.03;10.83;;;;;;;;;;5014442;28;20256;-84
2023/09/10 09:14:07;;;;;;;20.73;15.10;;;;;;;;;;5014184;28;20304;-84
2023/09/10 09:16:35;;;;;;;14.80;12.07;;;;;;;;;;5015004;28;20197;-84
2023/09/10 09:19:08;;;;;;;11.37;9.23;;;;;;;;;;5014466;28;20204;-84
2023/09/10 09:21:40;;;;;;;15.13;13.53;;;;;;;;;;5052754;28;20287;-84
2023/09/10 09:24:10;;;;;;;19.33;9.07;;;;;;;;;;5054004;28;20205;-84
2023/09/10 09:26:41;;;;;;;11.10;9.70;;;;;;;;;;5053334;28;20213;-84
2023/09/10 09:29:10;;;;;;;12.83;10.93;;;;;;;;;;5053412;28;20201;-84
2023/09/10 09:31:38;;;;;;;12.63;9.87;;;;;;;;;;5054042;28;20288;-84
2023/09/10 09:34:07;;;;;;;16.77;10.80;;;;;;;;;;5053691;28;20224;-84
2023/09/10 09:36:39;;;;;;;18.27;14.43;;;;;;;;;;5053855;28;20245;-84
2023/09/10 09:39:09;;;;;;;10.57;9.47;;;;;;;;;;5053462;28;20197;-84
2023/09/10 09:41:38;;;;;;;15.30;13.20;;;;;;;;;;5054563;28;20198;-84
2023/09/10 09:44:06;;;;;;;10.70;7.40;;;;;;;;;;5053411;28;20200;-84
2023/09/10 09:46:35;;;;;;;16.67;14.57;;;;;;;;;;5053742;28;20503;-84
2023/09/10 09:49:04;;;;;;;13.87;10.27;;;;;;;;;;5053273;28;20205;-84
2023/09/10 09:51:33;;;;;;;9.27;6.93;;;;;;;;;;5053803;28;20204;-84
2023/09/10 09:54:02;;;;;;;13.90;11.87;;;;;;;;;;5053472;28;20224;-84
2023/09/10 09:56:32;;;;;;;9.73;8.07;;;;;;;;;;5053285;28;20202;-84
2023/09/10 09:59:02;;;;;;;12.00;9.80;;;;;;;;;;5053469;28;20285;-84
2023/09/10 10:01:30;;;;;;;15.17;11.87;;;;;;;;;;5053634;28;20255;-84
2023/09/10 10:03:59;;;;;;;14.07;9.70;;;;;;;;;;5053063;28;20257;-84
2023/09/10 10:06:27;;;;;;;13.20;11.30;;;;;;;;;;5052764;28;20218;-84
2023/09/10 10:09:02;;;;;;;7.80;7.10;;;;;;;;;;5053726;28;20209;-82
2023/09/10 10:11:33;;;;;;;15.30;9.77;;;;;;;;;;5053401;28;20202;-83
2023/09/10 10:14:02;;;;;;;10.27;8.43;;;;;;;;;;5052795;28;20217;-82
2023/09/10 10:16:31;;;;;;;36.23;7.37;;;;;;;;;;5052783;28;20201;-83
2023/09/10 10:19:00;;;;;;;5.50;4.77;;;;;;;;;;5053317;28;20232;-82
2023/09/10 10:21:29;;;;;;;10.30;7.77;;;;;;;;;;5052641;28;20234;-83
2023/09/10 10:23:58;;;;;;;11.23;7.77;;;;;;;;;;5052317;28;20205;-84
2023/09/10 10:26:27;;;;;;;2.47;2.27;;;;;;;;;;5053062;28;20213;-84
2023/09/10 10:28:57;;;;;;;1.73;1.00;;;;;;;;;;5052997;28;20202;-84
2023/09/10 10:31:30;;;;;;;7.20;6.47;;;;;;;;;;5053004;28;20195;-84
2023/09/10 10:34:03;;;;;;;15.10;11.97;;;;;;;;;;5052542;28;20222;-84
2023/09/10 10:36:34;;;;;;;6.97;4.80;;;;;;;;;;5052744;28;20222;-84
2023/09/10 10:39:08;;;;;;;7.17;4.87;;;;;;;;;;5052081;28;20206;-84
2023/09/10 10:41:40;;;;;;;6.17;5.63;;;;;;;;;;5052501;28;20205;-83
2023/09/10 10:44:18;;;;;;;5.73;3.33;;;;;;;;;;5052114;28;20229;-83
2023/09/10 10:46:46;;;;;;;13.00;8.43;;;;;;;;;;5052698;28;20297;-83
2023/09/10 10:49:15;;;;;;;11.90;9.40;;;;;;;;;;5052706;28;20197;-83
2023/09/10 10:51:46;;;;;;;10.23;8.57;;;;;;;;;;5051814;28;20206;-83
2023/09/10 10:54:24;;;;;;;12.63;8.20;;;;;;;;;;5052273;28;20225;-83
2023/09/10 10:56:53;;;;;;;8.57;7.73;;;;;;;;;;5052501;28;20209;-83
2023/09/10 10:59:23;;;;;;;6.43;2.43;;;;;;;;;;5052168;28;20210;-83
2023/09/10 11:02:10;;;;;;;12.23;10.67;;;;;;;;;;5051754;28;20197;-83
2023/09/10 11:04:39;;;;;;;11.70;8.47;;;;;;;;;;5052573;28;20206;-83
2023/09/10 11:07:17;;;;;;;10.33;8.47;;;;;;;;;;5052660;28;20382;-82
2023/09/10 11:09:47;;;;;;;7.63;4.87;;;;;;;;;;5052121;28;20194;-83
2023/09/10 11:12:16;;;;;;;1.10;1.10;;;;;;;;;;5052127;28;20202;-83
2023/09/10 11:15:04;;;;;;;1.73;1.63;;;;;;;;;;5051966;28;20216;-83
2023/09/10 11:17:35;;;;;;;6.37;5.00;;;;;;;;;;5051529;28;20201;-83
2023/09/10 11:20:06;;;;;;;8.50;3.77;;;;;;;;;;5051316;28;20241;-83
2023/09/10 11:23:02;;;;;;;10.47;7.37;;;;;;;;;;5052483;28;20202;-83
2023/09/10 11:25:30;;;;;;;4.20;3.87;;;;;;;;;;5005959;28;20241;-83
2023/09/10 11:27:59;;;;;;;2.97;2.47;;;;;;;;;;5052002;28;20203;-83
2023/09/10 11:30:27;;;;;;;10.93;8.17;;;;;;;;;;5051791;28;20201;-83
2023/09/10 11:33:15;;;;;;;4.17;2.93;;;;;;;;;;5051675;28;20276;-83
2023/09/10 11:35:53;;;;;;;3.37;3.07;;;;;;;;;;5051289;28;20218;-83
2023/09/10 11:38:22;;;;;;;11.13;6.13;;;;;;;;;;5051644;28;20202;-84
2023/09/10 11:40:51;;;;;;;9.63;5.33;;;;;;;;;;5051819;28;20267;-83
2023/09/10 11:43:19;;;;;;;10.93;8.23;;;;;;;;;;5051633;28;20252;-83
2023/09/10 11:45:48;;;;;;;8.63;5.77;;;;;;;;;;5051218;28;20236;-84
2023/09/10 11:48:16;;;;;;;13.13;7.43;;;;;;;;;;5051574;28;20354;-84
2023/09/10 11:50:51;;;;;;;12.27;10.17;;;;;;;;;;5051086;28;20205;-84
2023/09/10 11:53:21;;;;;;;8.43;7.53;;;;;;;;;;5051288;28;20228;-84
2023/09/10 11:55:50;;;;;;;8.63;6.43;;;;;;;;;;5051279;28;20224;-84
2023/09/10 11:58:19;;;;;;;11.93;10.87;;;;;;;;;;5051374;28;20198;-84
2023/09/10 12:00:50;;;;;;;3.40;2.83;;;;;;;;;;5051439;28;20241;-84
2023/09/10 12:03:19;;;;;;;4.50;2.50;;;;;;;;;;5050908;28;20202;-83
2023/09/10 12:05:47;;;;;;;1.80;1.53;;;;;;;;;;5051504;28;20205;-83
2023/09/10 12:08:17;;;;;;;1.03;1.03;;;;;;;;;;5051605;28;20275;-83
2023/09/10 12:10:46;;;;;;;3.33;2.27;;;;;;;;;;5051227;28;20201;-83
2023/09/10 12:13:15;;;;;;;8.63;5.67;;;;;;;;;;5050881;28;20198;-83
2023/09/10 12:15:45;;;;;;;2.73;2.53;;;;;;;;;;5051289;28;20222;-83
2023/09/10 12:18:14;;;;;;;3.60;3.30;;;;;;;;;;5051388;28;20203;-83
2023/09/10 12:20:43;;;;;;;6.07;4.63;;;;;;;;;;5051003;28;20242;-83
2023/09/10 12:23:11;;;;;;;11.60;8.53;;;;;;;;;;5051175;28;20206;-83
2023/09/10 12:25:41;;;;;;;10.37;6.93;;;;;;;;;;5051853;28;20217;-83
2023/09/10 12:28:10;;;;;;;9.03;6.33;;;;;;;;;;5051348;28;20206;-83
2023/09/10 12:30:38;;;;;;;3.00;2.80;;;;;;;;;;5051071;28;20202;-83
2023/09/10 12:33:07;;;;;;;10.77;9.37;;;;;;;;;;5051025;28;20206;-82
2023/09/10 12:35:36;;;;;;;4.90;4.40;;;;;;;;;;5051367;28;20309;-83
2023/09/10 12:38:05;;;;;;;10.63;5.67;;;;;;;;;;5050714;28;20253;-83
2023/09/10 12:40:34;;;;;;;4.47;4.00;;;;;;;;;;5051259;28;20213;-83
2023/09/10 12:43:04;;;;;;;12.27;6.87;;;;;;;;;;5051148;28;20224;-83
2023/09/10 12:45:33;;;;;;;6.37;5.57;;;;;;;;;;5051135;28;20198;-83
2023/09/10 12:48:01;;;;;;;11.33;7.40;;;;;;;;;;5050840;28;20214;-83
2023/09/10 12:50:30;;;;;;;8.87;6.80;;;;;;;;;;5050994;28;20191;-83
2023/09/10 12:53:00;;;;;;;9.73;8.47;;;;;;;;;;5051273;28;20210;-83
2023/09/10 12:55:28;;;;;;;11.57;7.20;;;;;;;;;;5051248;28;20221;-83
2023/09/10 12:57:57;;;;;;;8.60;6.33;;;;;;;;;;5050735;28;20214;-82
2023/09/10 13:00:28;;;;;;;2.80;2.60;;;;;;;;;;5051295;28;20202;-83
2023/09/10 13:02:57;;;;;;;7.80;5.57;;;;;;;;;;5053459;28;20195;-83
2023/09/10 13:05:25;;;;;;;2.87;2.23;;;;;;;;;;5054823;28;20289;-83
2023/09/10 13:07:54;;;;;;;4.87;2.63;;;;;;;;;;5054267;28;20460;-83
2023/09/10 13:10:23;;;;;;;9.47;3.80;;;;;;;;;;5054777;28;20214;-83
2023/09/10 13:12:51;;;;;;;4.87;2.63;;;;;;;;;;5054353;28;20237;-84
2023/09/10 13:15:20;;;;;;;4.40;2.80;;;;;;;;;;5053798;28;20223;-85
2023/09/10 13:17:50;;;;;;;9.23;3.73;;;;;;;;;;5054132;28;20206;-84
2023/09/10 13:20:18;;;;;;;5.63;3.30;;;;;;;;;;5054209;28;20249;-84
2023/09/10 13:22:47;;;;;;;7.27;3.07;;;;;;;;;;5054336;28;20198;-84
2023/09/10 13:25:15;;;;;;;3.17;2.07;;;;;;;;;;5053522;28;20248;-84
2023/09/10 13:27:44;;;;;;;1.57;1.47;;;;;;;;;;5053697;28;20210;-84
2023/09/10 13:30:13;;;;;;;2.33;1.17;;;;;;;;;;5054408;28;20229;-84
2023/09/10 13:32:41;;;;;;;1.10;1.00;;;;;;;;;;5054033;28;20229;-84
2023/09/10 13:35:11;;;;;;;8.10;3.17;;;;;;;;;;5053331;28;20220;-84
2023/09/10 13:37:40;;;;;;;2.63;2.43;;;;;;;;;;5053872;28;20226;-84
2023/09/10 13:40:09;;;;;;;6.70;2.73;;;;;;;;;;5053953;28;20206;-84
2023/09/10 13:42:38;;;;;;;2.30;2.10;;;;;;;;;;5053478;28;20198;-84
2023/09/10 13:45:07;;;;;;;5.07;2.70;;;;;;;;;;5053624;28;20199;-84
2023/09/10 13:47:36;;;;;;;7.60;3.23;;;;;;;;;;5054027;28;20209;-84
2023/09/10 13:50:04;;;;;;;6.40;4.73;;;;;;;;;;5053859;28;20205;-84
2023/09/10 13:52:35;;;;;;;4.53;3.33;;;;;;;;;;5053327;28;20232;-84
2023/09/10 13:55:03;;;;;;;2.20;1.10;;;;;;;;;;5053662;28;20200;-84
2023/09/10 13:57:32;;;;;;;0.33;0.33;;;;;;;;;;5053699;28;20257;-84
2023/09/10 14:00:00;;;;;;;2.27;2.17;;;;;;;;;;5053050;28;20202;-85
2023/09/10 14:02:29;;;;;;;2.67;1.33;;;;;;;;;;5053112;28;20198;-84
2023/09/10 14:04:57;;;;;;;2.78;2.55;;;;;;;;;;5053327;28;20202;-84
2023/09/10 14:07:26;;;;;;;4.33;2.90;;;;;;;;;;5053529;28;20213;-84
2023/09/10 14:09:56;;;;;;;3.87;1.43;;;;;;;;;;5053076;28;20217;-84
2023/09/10 14:12:24;;;;;;;0.90;0.90;;;;;;;;;;5053234;28;20264;-84
2023/09/10 14:14:53;;;;;;;11.52;2.83;;;;;;;;;;5052081;28;20296;-84
2023/09/10 14:17:21;;;;;;;1.27;1.17;;;;;;;;;;5053101;28;20213;-84
2023/09/10 14:19:50;;;;;;;2.30;1.55;;;;;;;;;;5052961;28;20241;-84
2023/09/10 14:22:18;;;;;;;5.88;2.33;;;;;;;;;;5052747;28;20270;-84
2023/09/10 14:24:48;;;;;;;1.73;1.58;;;;;;;;;;5053071;28;20209;-84
2023/09/10 14:27:17;;;;;;;8.13;2.77;;;;;;;;;;5052839;28;20209;-84
2023/09/10 14:29:46;;;;;;;0.40;0.40;;;;;;;;;;5052590;28;20210;-84
2023/09/10 14:32:14;;;;;;;4.13;2.35;;;;;;;;;;5052969;28;20281;-84
2023/09/10 14:34:43;;;;;;;4.63;2.10;;;;;;;;;;5052662;28;20297;-83
2023/09/10 14:37:11;;;;;;;4.33;3.30;;;;;;;;;;5052052;28;20226;-84
2023/09/10 14:39:40;;;;;;;4.37;2.27;;;;;;;;;;5052849;28;20194;-83
2023/09/10 14:42:08;;;;;;;5.03;2.53;;;;;;;;;;5053433;28;20210;-82
2023/09/10 14:44:38;;;;;;;5.70;1.90;;;;;;;;;;5052429;28;20202;-83
2023/09/10 14:47:07;;;;;;;5.57;1.70;;;;;;;;;;5052293;28;20297;-83
2023/09/10 14:49:35;;;;;;;3.37;2.37;;;;;;;;;;5052620;28;20205;-83